Time;durP1;ratioP1;P1;durP2;ratioP2;P2;SDS_P1;SDS_P2;PMS_P1;PMS_P2;Temp;Humidity;BMP_temperature;BMP_pressure;BME280_temperature;BME280_humidity;BME280_pressure;Samples;Min_cycle;Max_cycle;Signal;HPM_P1;HPM_P2
2024/02/29 00:02:10;;;;;;;56.90;33.10;;;;;;;8.09;100.00;99431.82;108933;1259;60334;-71
2024/02/29 00:04:54;;;;;;;56.90;32.80;;;;;;;8.06;100.00;99427.52;108774;1259;63555;-71
2024/02/29 00:07:21;;;;;;;62.00;36.10;;;;;;;8.02;100.00;99427.02;108907;1259;59954;-72
2024/02/29 00:09:47;;;;;;;61.40;33.50;;;;;;;8.00;100.00;99424.45;108921;1258;59899;-72
2024/02/29 00:12:14;;;;;;;57.80;34.90;;;;;;;8.00;100.00;99422.85;108958;1258;66696;-70
2024/02/29 00:14:42;;;;;;;56.60;33.30;;;;;;;8.02;100.00;99422.96;108939;1259;60173;-72
2024/02/29 00:17:10;;;;;;;57.50;32.40;;;;;;;8.02;100.00;99422.77;108893;1259;64203;-71
2024/02/29 00:19:37;;;;;;;55.60;33.30;;;;;;;8.02;100.00;99417.46;109220;1255;60173;-71
2024/02/29 00:22:04;;;;;;;63.10;34.70;;;;;;;8.02;100.00;99417.44;109231;1255;60047;-71
2024/02/29 00:24:30;;;;;;;61.30;34.50;;;;;;;8.03;100.00;99418.84;109159;1255;67809;-70
2024/02/29 00:26:57;;;;;;;60.10;33.40;;;;;;;8.03;100.00;99417.41;109011;1256;61441;-71
2024/02/29 00:29:26;;;;;;;57.40;33.10;;;;;;;8.05;100.00;99417.86;108944;1255;62785;-70
2024/02/29 00:31:53;;;;;;;63.20;34.90;;;;;;;8.06;100.00;99418.14;109121;1256;59884;-71
2024/02/29 00:34:20;;;;;;;62.30;33.30;;;;;;;8.06;100.00;99420.44;108997;1256;59950;-71
2024/02/29 00:36:47;;;;;;;57.90;32.20;;;;;;;8.06;100.00;99419.94;109148;1256;67895;-71
2024/02/29 00:39:13;;;;;;;62.20;32.40;;;;;;;8.05;100.00;99418.00;109204;1256;61026;-71
2024/02/29 00:41:40;;;;;;;66.00;33.30;;;;;;;8.06;100.00;99415.32;109146;1256;65020;-71
2024/02/29 00:44:07;;;;;;;59.40;32.50;;;;;;;8.06;100.00;99419.37;109148;1255;59776;-70
2024/02/29 00:46:36;;;;;;;58.60;33.60;;;;;;;8.07;100.00;99417.77;109164;1256;59751;-71
2024/02/29 00:49:03;;;;;;;63.90;31.60;;;;;;;8.07;100.00;99421.11;108988;1255;67967;-70
2024/02/29 00:51:30;;;;;;;61.40;31.20;;;;;;;8.04;100.00;99421.45;109162;1259;61155;-71
2024/02/29 00:53:57;;;;;;;62.60;32.90;;;;;;;8.00;100.00;99425.70;109128;1256;65008;-71
2024/02/29 00:56:24;;;;;;;68.40;31.20;;;;;;;7.99;100.00;99426.81;109150;1256;59893;-71
2024/02/29 00:58:51;;;;;;;56.10;30.20;;;;;;;7.98;100.00;99420.48;109184;1255;59829;-70
2024/02/29 01:01:18;;;;;;;53.80;29.20;;;;;;;7.97;100.00;99420.53;109166;1255;66784;-71
2024/02/29 01:03:44;;;;;;;54.10;30.10;;;;;;;7.96;100.00;99421.14;109162;1256;60537;-71
2024/02/29 01:06:12;;;;;;;58.20;29.70;;;;;;;7.96;100.00;99418.64;109165;1255;64808;-71
2024/02/29 01:08:38;;;;;;;60.10;29.00;;;;;;;7.97;100.00;99415.07;109132;1256;60029;-72
2024/02/29 01:11:05;;;;;;;61.10;30.40;;;;;;;7.96;100.00;99411.77;109167;1255;60228;-71
2024/02/29 01:13:32;;;;;;;55.80;28.80;;;;;;;7.95;100.00;99411.64;109181;1256;68065;-71
2024/02/29 01:15:58;;;;;;;60.20;28.20;;;;;;;7.94;100.00;99409.17;109205;1256;61660;-71
2024/02/29 01:18:25;;;;;;;58.10;29.10;;;;;;;7.93;100.00;99405.00;109145;1255;65181;-71
2024/02/29 01:20:51;;;;;;;55.20;29.30;;;;;;;7.93;100.00;99402.88;109126;1256;59900;-71
2024/02/29 01:23:18;;;;;;;61.60;29.30;;;;;;;7.93;100.00;99404.13;109148;1256;59874;-71
2024/02/29 01:25:45;;;;;;;51.50;29.10;;;;;;;7.92;100.00;99401.52;108987;1255;67857;-71
2024/02/29 01:28:11;;;;;;;54.50;30.60;;;;;;;7.92;100.00;99401.87;109161;1255;61185;-72
2024/02/29 01:30:38;;;;;;;55.10;28.30;;;;;;;7.91;100.00;99403.46;108965;1256;64027;-71
2024/02/29 01:33:05;;;;;;;57.40;28.70;;;;;;;7.92;100.00;99399.39;109163;1256;59946;-72
2024/02/29 01:35:31;;;;;;;60.30;30.30;;;;;;;7.92;100.00;99399.73;108956;1256;59932;-71
2024/02/29 01:37:58;;;;;;;61.10;29.40;;;;;;;7.93;100.00;99402.89;109187;1256;67820;-71
2024/02/29 01:40:24;;;;;;;59.50;28.10;;;;;;;7.93;100.00;99401.63;109188;1255;60264;-72
2024/02/29 01:42:51;;;;;;;54.60;29.20;;;;;;;7.91;100.00;99398.38;109133;1255;65240;-72
2024/02/29 01:45:18;;;;;;;58.40;30.40;;;;;;;7.90;100.00;99397.89;108982;1255;59820;-72
2024/02/29 01:47:44;;;;;;;59.90;31.30;;;;;;;7.91;100.00;99397.65;109160;1255;59696;-71
2024/02/29 01:50:13;;;;;;;63.00;30.80;;;;;;;7.94;100.00;99398.24;109135;1255;67847;-71
2024/02/29 01:52:41;;;;;;;60.20;30.30;;;;;;;7.96;100.00;99399.17;109106;1256;61387;-72
2024/02/29 01:55:09;;;;;;;60.50;29.30;;;;;;;7.98;100.00;99399.29;109152;1255;65148;-71
2024/02/29 01:57:38;;;;;;;60.60;31.00;;;;;;;7.98;100.00;99396.79;109104;1256;59759;-72
2024/02/29 02:00:05;;;;;;;61.00;30.80;;;;;;;7.99;100.00;99393.05;108977;1255;60149;-72
2024/02/29 02:02:33;;;;;;;70.50;31.10;;;;;;;7.99;100.00;99390.73;109202;1255;67830;-71
2024/02/29 02:04:59;;;;;;;60.80;30.10;;;;;;;7.99;100.00;99392.31;109130;1256;61386;-72
2024/02/29 02:07:26;;;;;;;59.20;31.30;;;;;;;7.99;100.00;99389.69;109083;1256;63679;-72
2024/02/29 02:09:53;;;;;;;57.60;29.60;;;;;;;7.97;100.00;99391.50;109165;1256;59744;-72
2024/02/29 02:12:19;;;;;;;60.40;29.40;;;;;;;7.97;100.00;99396.13;108956;1256;59828;-71
2024/02/29 02:14:46;;;;;;;61.70;29.90;;;;;;;7.96;100.00;99397.79;109154;1255;67827;-71
2024/02/29 02:17:13;;;;;;;60.40;30.30;;;;;;;7.95;100.00;99394.30;109147;1255;61078;-72
2024/02/29 02:19:41;;;;;;;62.80;31.40;;;;;;;7.95;100.00;99393.75;109129;1256;64023;-71
2024/02/29 02:22:07;;;;;;;59.40;29.90;;;;;;;7.96;100.00;99392.64;109163;1256;59798;-71
2024/02/29 02:24:35;;;;;;;66.40;29.90;;;;;;;7.96;100.00;99386.09;109148;1256;59764;-70
2024/02/29 02:27:03;;;;;;;69.40;30.70;;;;;;;7.96;100.00;99383.27;109168;1256;68116;-72
2024/02/29 02:29:29;;;;;;;70.70;28.50;;;;;;;7.96;100.00;99383.79;109149;1256;61206;-71
2024/02/29 02:31:56;;;;;;;65.80;30.40;;;;;;;7.97;100.00;99386.75;109141;1256;65312;-70
2024/02/29 02:34:23;;;;;;;61.70;30.40;;;;;;;7.98;100.00;99384.93;109184;1256;59877;-71
2024/02/29 02:36:50;;;;;;;64.20;29.80;;;;;;;7.99;100.00;99383.29;109163;1256;59675;-72
2024/02/29 02:39:17;;;;;;;69.20;30.40;;;;;;;7.99;100.00;99384.55;109113;1256;67812;-72
2024/02/29 02:41:44;;;;;;;61.60;30.70;;;;;;;7.98;100.00;99384.91;109156;1256;61048;-72
2024/02/29 02:44:12;;;;;;;58.50;28.70;;;;;;;7.98;100.00;99384.92;109129;1256;64020;-71
2024/02/29 02:46:38;;;;;;;76.70;29.00;;;;;;;7.97;100.00;99387.28;109150;1256;59873;-72
2024/02/29 02:49:05;;;;;;;69.40;30.20;;;;;;;7.96;100.00;99384.52;109188;1256;59824;-72
2024/02/29 02:51:31;;;;;;;75.40;30.40;;;;;;;7.96;100.00;99383.80;109168;1256;68143;-72
2024/02/29 02:53:58;;;;;;;70.60;31.00;;;;;;;7.95;100.00;99383.65;109187;1256;61611;-72
2024/02/29 02:56:25;;;;;;;71.60;28.60;;;;;;;7.94;100.00;99387.26;109134;1256;64805;-72
2024/02/29 02:58:51;;;;;;;68.40;30.60;;;;;;;7.93;100.00;99389.42;109153;1256;59961;-71
2024/02/29 03:01:18;;;;;;;69.20;29.00;;;;;;;7.94;100.00;99387.45;109210;1256;60064;-71
2024/02/29 03:03:45;;;;;;;74.10;32.00;;;;;;;7.95;100.00;99381.91;109183;1256;67865;-70
2024/02/29 03:06:14;;;;;;;76.10;31.30;;;;;;;7.96;100.00;99378.86;109189;1256;60885;-71
2024/02/29 03:08:40;;;;;;;68.90;30.10;;;;;;;7.97;100.00;99377.23;109161;1256;65216;-70
2024/02/29 03:11:07;;;;;;;73.50;32.80;;;;;;;7.98;100.00;99376.45;109132;1256;60080;-70
2024/02/29 03:13:34;;;;;;;71.60;31.10;;;;;;;7.99;100.00;99376.56;109178;1256;60084;-71
2024/02/29 03:16:01;;;;;;;79.60;32.10;;;;;;;8.01;100.00;99378.77;109165;1259;66734;-72
2024/02/29 03:18:27;;;;;;;73.20;32.00;;;;;;;8.01;100.00;99381.27;109160;1256;60250;-72
2024/02/29 03:20:54;;;;;;;67.20;31.80;;;;;;;8.01;100.00;99380.20;109161;1256;65315;-71
2024/02/29 03:23:20;;;;;;;67.60;32.20;;;;;;;8.01;100.00;99386.04;109161;1256;59802;-72
2024/02/29 03:25:47;;;;;;;71.80;30.80;;;;;;;8.01;100.00;99385.52;109162;1257;59883;-71
2024/02/29 03:28:14;;;;;;;81.80;33.10;;;;;;;8.00;100.00;99384.11;108978;1256;66903;-72
2024/02/29 03:30:40;;;;;;;70.20;31.90;;;;;;;8.00;100.00;99387.12;109141;1256;61015;-71
2024/02/29 03:33:07;;;;;;;72.10;30.90;;;;;;;8.01;100.00;99385.29;109180;1256;65129;-72
2024/02/29 03:35:34;;;;;;;73.40;31.00;;;;;;;8.01;100.00;99385.48;109012;1257;60730;-72
2024/02/29 03:38:00;;;;;;;78.20;32.40;;;;;;;8.00;100.00;99385.52;109011;1257;60207;-72
2024/02/29 03:40:27;;;;;;;70.20;30.00;;;;;;;8.01;100.00;99382.31;108965;1258;67836;-72
2024/02/29 03:42:54;;;;;;;62.40;30.90;;;;;;;8.02;100.00;99379.61;109012;1257;61005;-71
2024/02/29 03:45:21;;;;;;;85.00;33.30;;;;;;;8.03;100.00;99378.11;108935;1257;64755;-71
2024/02/29 03:47:48;;;;;;;76.90;34.30;;;;;;;8.04;100.00;99372.75;108988;1257;60088;-71
2024/02/29 03:50:15;;;;;;;77.30;32.80;;;;;;;8.06;100.00;99372.86;108969;1258;59891;-72
2024/02/29 03:52:41;;;;;;;71.80;33.20;;;;;;;8.07;100.00;99375.78;109006;1257;67757;-71
2024/02/29 03:55:09;;;;;;;77.60;32.80;;;;;;;8.08;100.00;99374.66;108888;1257;60111;-71
2024/02/29 03:57:35;;;;;;;82.10;35.10;;;;;;;8.10;100.00;99371.61;108860;1257;65489;-71
2024/02/29 04:00:03;;;;;;;83.20;33.30;;;;;;;8.10;100.00;99369.10;108866;1257;59862;-71
2024/02/29 04:02:29;;;;;;;94.50;36.50;;;;;;;8.11;100.00;99366.23;109021;1257;59775;-70
2024/02/29 04:04:56;;;;;;;91.00;36.60;;;;;;;8.15;100.00;99357.91;108953;1257;66713;-71
2024/02/29 04:07:23;;;;;;;89.80;36.70;;;;;;;8.18;100.00;99354.04;109081;1256;60056;-71
2024/02/29 04:09:54;;;;;;;92.90;35.60;;;;;;;8.20;100.00;99353.77;109146;1255;63988;-71
2024/02/29 04:12:20;;;;;;;95.50;38.60;;;;;;;8.19;100.00;99351.29;109126;1256;59797;-71
2024/02/29 04:14:47;;;;;;;91.20;37.90;;;;;;;8.20;100.00;99352.52;109193;1259;60017;-71
2024/02/29 04:17:14;;;;;;;86.80;36.50;;;;;;;8.20;100.00;99350.74;109160;1256;67828;-71
2024/02/29 04:19:41;;;;;;;95.60;37.70;;;;;;;8.19;100.00;99350.25;109166;1257;60997;-69
2024/02/29 04:22:08;;;;;;;92.90;39.20;;;;;;;8.20;100.00;99349.32;109174;1257;65114;-71
2024/02/29 04:24:35;;;;;;;108.20;41.30;;;;;;;8.21;100.00;99350.48;109162;1256;59902;-70
2024/02/29 04:27:01;;;;;;;93.80;39.80;;;;;;;8.23;100.00;99345.63;109172;1256;59937;-71
2024/02/29 04:29:28;;;;;;;93.60;39.50;;;;;;;8.23;100.00;99347.90;109170;1257;68029;-71
2024/02/29 04:31:55;;;;;;;100.90;40.00;;;;;;;8.23;100.00;99345.42;109172;1256;60823;-70
2024/02/29 04:34:22;;;;;;;90.30;35.20;;;;;;;8.24;100.00;99345.72;109154;1256;65009;-71
2024/02/29 04:36:48;;;;;;;95.30;36.60;;;;;;;8.24;100.00;99347.17;109138;1256;60606;-71
2024/02/29 04:39:15;;;;;;;80.60;34.20;;;;;;;8.21;100.00;99349.27;109161;1258;59714;-71
2024/02/29 04:41:42;;;;;;;89.90;35.20;;;;;;;8.18;100.00;99348.88;109177;1256;66792;-71
2024/02/29 04:44:09;;;;;;;85.40;33.60;;;;;;;8.16;100.00;99347.90;109174;1257;61056;-70
2024/02/29 04:46:35;;;;;;;83.80;34.60;;;;;;;8.16;100.00;99340.32;109147;1255;65256;-70
2024/02/29 04:49:02;;;;;;;82.60;36.00;;;;;;;8.16;100.00;99339.77;109137;1259;59823;-70
2024/02/29 04:51:28;;;;;;;84.00;35.60;;;;;;;8.16;100.00;99337.82;109184;1257;59838;-71
2024/02/29 04:53:55;;;;;;;96.50;43.80;;;;;;;8.17;100.00;99333.71;109161;1256;67800;-70
2024/02/29 04:56:22;;;;;;;91.70;44.90;;;;;;;8.18;100.00;99332.08;109178;1255;60394;-70
2024/02/29 04:58:49;;;;;;;97.90;44.40;;;;;;;8.18;100.00;99332.24;109177;1256;65022;-70
2024/02/29 05:01:16;;;;;;;92.90;45.00;;;;;;;8.18;100.00;99324.81;109143;1256;60066;-71
2024/02/29 05:03:44;;;;;;;90.30;44.40;;;;;;;8.19;100.00;99327.41;109159;1256;59896;-71
2024/02/29 05:06:15;;;;;;;100.30;45.90;;;;;;;8.20;100.00;99328.98;109161;1256;66462;-70
2024/02/29 05:08:42;;;;;;;99.50;45.60;;;;;;;8.19;100.00;99324.06;109178;1255;60184;-71
2024/02/29 05:11:10;;;;;;;106.10;50.50;;;;;;;8.18;100.00;99326.57;109166;1255;65176;-71
2024/02/29 05:13:37;;;;;;;103.40;48.50;;;;;;;8.18;100.00;99323.04;109166;1256;60490;-72
2024/02/29 05:16:04;;;;;;;103.30;49.50;;;;;;;8.19;100.00;99319.63;108963;1257;59892;-72
2024/02/29 05:18:31;;;;;;;100.40;46.90;;;;;;;8.19;100.00;99313.98;109161;1256;66799;-72
2024/02/29 05:20:58;;;;;;;110.00;50.80;;;;;;;8.18;100.00;99316.16;109167;1257;61263;-72
2024/02/29 05:23:25;;;;;;;111.30;50.60;;;;;;;8.17;100.00;99319.39;109011;1257;65069;-72
2024/02/29 05:25:51;;;;;;;115.10;52.20;;;;;;;8.16;100.00;99321.19;109170;1256;59857;-71
2024/02/29 05:28:18;;;;;;;106.90;50.30;;;;;;;8.13;100.00;99318.66;109167;1256;59834;-72
2024/02/29 05:30:44;;;;;;;114.70;51.80;;;;;;;8.13;100.00;99316.59;109176;1256;66842;-72
2024/02/29 05:33:11;;;;;;;102.30;49.80;;;;;;;8.11;100.00;99314.71;109165;1257;60016;-72
2024/02/29 05:35:38;;;;;;;105.60;49.70;;;;;;;8.09;100.00;99313.73;109152;1256;64034;-71
2024/02/29 05:38:06;;;;;;;113.90;46.80;;;;;;;8.09;100.00;99313.23;109168;1256;60102;-71
2024/02/29 05:40:32;;;;;;;96.70;47.10;;;;;;;8.10;100.00;99318.52;109180;1257;59979;-72
2024/02/29 05:42:59;;;;;;;103.20;48.40;;;;;;;8.10;100.00;99323.98;109164;1257;67905;-71
2024/02/29 05:45:25;;;;;;;101.70;48.10;;;;;;;8.12;100.00;99327.03;109165;1256;60025;-72
2024/02/29 05:47:52;;;;;;;109.60;51.10;;;;;;;8.14;100.00;99333.86;109163;1257;64128;-72
2024/02/29 05:50:19;;;;;;;92.50;44.80;;;;;;;8.14;100.00;99334.39;109161;1256;59831;-71
2024/02/29 05:52:45;;;;;;;105.70;47.80;;;;;;;8.16;100.00;99336.41;109183;1256;60562;-71
2024/02/29 05:55:12;;;;;;;100.80;47.10;;;;;;;8.17;100.00;99338.83;109176;1256;66822;-71
2024/02/29 05:57:39;;;;;;;110.40;52.10;;;;;;;8.19;100.00;99341.91;109165;1256;61302;-72
2024/02/29 06:00:06;;;;;;;114.00;52.90;;;;;;;8.21;100.00;99342.52;109175;1256;65194;-71
2024/02/29 06:02:33;;;;;;;114.30;51.40;;;;;;;8.24;100.00;99341.52;109178;1257;59827;-71
2024/02/29 06:04:59;;;;;;;105.90;54.30;;;;;;;8.26;100.00;99342.98;109178;1255;60104;-71
2024/02/29 06:07:26;;;;;;;110.60;54.30;;;;;;;8.28;100.00;99345.00;109152;1257;67486;-71
2024/02/29 06:09:53;;;;;;;111.00;49.10;;;;;;;8.29;100.00;99346.89;109163;1257;60253;-71
2024/02/29 06:12:21;;;;;;;104.30;49.30;;;;;;;8.29;100.00;99344.25;109143;1257;63752;-71
2024/02/29 06:14:48;;;;;;;106.00;48.10;;;;;;;8.30;100.00;99342.42;109174;1256;59853;-71
2024/02/29 06:17:16;;;;;;;106.30;52.70;;;;;;;8.32;100.00;99345.66;108966;1255;59845;-71
2024/02/29 06:19:42;;;;;;;114.70;52.90;;;;;;;8.33;100.00;99344.17;109188;1256;66585;-71
2024/02/29 06:22:09;;;;;;;105.20;49.80;;;;;;;8.35;100.00;99341.27;109195;1257;60101;-71
2024/02/29 06:24:36;;;;;;;103.70;49.20;;;;;;;8.37;100.00;99336.74;109197;1255;64117;-71
2024/02/29 06:27:03;;;;;;;108.20;49.10;;;;;;;8.40;100.00;99338.74;108919;1257;60690;-73
2024/02/29 06:29:29;;;;;;;102.60;45.70;;;;;;;8.41;100.00;99337.61;109190;1256;59786;-71
2024/02/29 06:31:57;;;;;;;101.90;47.10;;;;;;;8.42;100.00;99332.27;109197;1256;68009;-71
2024/02/29 06:34:23;;;;;;;100.00;44.90;;;;;;;8.44;100.00;99332.35;109219;1257;60125;-72
2024/02/29 06:36:50;;;;;;;91.90;41.30;;;;;;;8.44;100.00;99333.38;109142;1256;65067;-72
2024/02/29 06:39:17;;;;;;;82.30;37.20;;;;;;;8.47;100.00;99330.23;109152;1256;60194;-71
2024/02/29 06:41:43;;;;;;;86.30;38.40;;;;;;;8.49;100.00;99329.93;109141;1257;59751;-72
2024/02/29 06:44:10;;;;;;;85.70;38.70;;;;;;;8.51;100.00;99330.54;109193;1257;67839;-71
2024/02/29 06:46:37;;;;;;;90.20;39.70;;;;;;;8.55;100.00;99338.80;109186;1255;68882;-72
2024/02/29 06:49:04;;;;;;;81.00;38.70;;;;;;;8.60;100.00;99339.63;108986;1257;64688;-72
2024/02/29 06:51:31;;;;;;;81.80;39.10;;;;;;;8.64;100.00;99339.95;109212;1256;59785;-71
2024/02/29 06:53:58;;;;;;;81.90;38.60;;;;;;;8.68;100.00;99336.56;109169;1258;59696;-72
2024/02/29 06:56:24;;;;;;;89.60;40.20;;;;;;;8.72;100.00;99337.59;109227;1257;67800;-71
2024/02/29 06:58:52;;;;;;;88.90;43.30;;;;;;;8.75;100.00;99334.75;109200;1256;60022;-71
2024/02/29 07:01:19;;;;;;;87.50;41.50;;;;;;;8.81;100.00;99336.19;109211;1256;65212;-71
2024/02/29 07:03:49;;;;;;;82.60;41.00;;;;;;;8.87;100.00;99333.94;108947;1256;59888;-71
2024/02/29 07:06:16;;;;;;;76.90;38.30;;;;;;;8.91;100.00;99332.27;109211;1257;59873;-71
2024/02/29 07:08:43;;;;;;;88.70;40.20;;;;;;;8.95;100.00;99332.76;109239;1256;68191;-71
2024/02/29 07:11:11;;;;;;;71.40;37.60;;;;;;;9.00;100.00;99338.02;109192;1256;61299;-71
2024/02/29 07:13:38;;;;;;;69.70;38.50;;;;;;;9.06;100.00;99339.45;109185;1256;64021;-71
2024/02/29 07:16:05;;;;;;;67.30;38.70;;;;;;;9.10;100.00;99337.43;109186;1256;59832;-72
2024/02/29 07:18:32;;;;;;;71.60;37.40;;;;;;;9.12;100.00;99336.77;108989;1255;59814;-72
2024/02/29 07:20:58;;;;;;;66.40;37.90;;;;;;;9.14;100.00;99333.35;109221;1256;67907;-71
2024/02/29 07:23:25;;;;;;;73.00;39.60;;;;;;;9.16;100.00;99336.04;109216;1256;61039;-72
2024/02/29 07:25:53;;;;;;;65.10;40.50;;;;;;;9.20;100.00;99334.59;109142;1256;65176;-70
2024/02/29 07:28:19;;;;;;;69.10;38.80;;;;;;;9.26;100.00;99334.98;108957;1256;60118;-73
2024/02/29 07:30:46;;;;;;;60.90;35.50;;;;;;;9.30;100.00;99333.66;109205;1255;59908;-73
2024/02/29 07:33:13;;;;;;;59.90;34.20;;;;;;;9.32;100.00;99330.05;109039;1257;67765;-72
2024/02/29 07:35:39;;;;;;;60.30;35.00;;;;;;;9.35;100.00;99327.91;109238;1255;60447;-72
2024/02/29 07:38:06;;;;;;;62.30;35.10;;;;;;;9.41;100.00;99324.36;109170;1255;64086;-72
2024/02/29 07:40:33;;;;;;;59.00;35.50;;;;;;;9.43;100.00;99321.23;109026;1256;59805;-72
2024/02/29 07:43:00;;;;;;;58.40;34.50;;;;;;;9.47;100.00;99323.14;109212;1256;59724;-72
2024/02/29 07:45:27;;;;;;;62.20;35.20;;;;;;;9.54;100.00;99320.07;109220;1255;67867;-72
2024/02/29 07:47:53;;;;;;;59.00;35.80;;;;;;;9.61;100.00;99318.60;109230;1256;60198;-72
2024/02/29 07:50:20;;;;;;;59.00;36.60;;;;;;;9.71;100.00;99316.44;109173;1256;65119;-71
2024/02/29 07:52:47;;;;;;;58.60;34.70;;;;;;;9.84;100.00;99314.61;108908;1256;59893;-72
2024/02/29 07:55:14;;;;;;;58.30;33.50;;;;;;;9.95;100.00;99315.20;109199;1255;59693;-71
2024/02/29 07:57:41;;;;;;;60.10;33.10;;;;;;;10.04;100.00;99311.80;109206;1256;68059;-72
2024/02/29 08:00:10;;;;;;;50.80;31.50;;;;;;;10.11;100.00;99310.70;109062;1256;59996;-72
2024/02/29 08:02:43;;;;;;;51.70;31.30;;;;;;;10.25;100.00;99309.50;109172;1255;64975;-72
2024/02/29 08:05:10;;;;;;;54.80;33.50;;;;;;;10.36;100.00;99309.03;109201;1256;59777;-71
2024/02/29 08:07:37;;;;;;;52.70;35.10;;;;;;;10.40;100.00;99308.97;109206;1255;59894;-72
2024/02/29 08:10:05;;;;;;;52.30;32.40;;;;;;;10.45;100.00;99310.64;109200;1255;67809;-71
2024/02/29 08:12:31;;;;;;;52.10;33.10;;;;;;;10.49;100.00;99308.21;109050;1256;61442;-72
2024/02/29 08:14:58;;;;;;;52.10;31.70;;;;;;;10.57;100.00;99305.59;109023;1257;64074;-72
2024/02/29 08:17:27;;;;;;;51.20;32.90;;;;;;;10.63;100.00;99302.07;109179;1255;59728;-72
2024/02/29 08:19:53;;;;;;;49.40;32.80;;;;;;;10.73;100.00;99301.94;109203;1256;59695;-72
2024/02/29 08:22:20;;;;;;;48.90;29.80;;;;;;;10.83;100.00;99301.48;109174;1257;67787;-72
2024/02/29 08:24:47;;;;;;;51.20;33.70;;;;;;;10.92;100.00;99303.80;109197;1256;60848;-72
2024/02/29 08:27:13;;;;;;;47.80;32.40;;;;;;;10.93;100.00;99305.11;109193;1255;65020;-72
2024/02/29 08:29:40;;;;;;;50.30;30.80;;;;;;;11.02;100.00;99299.08;109156;1256;59827;-72
2024/02/29 08:32:07;;;;;;;50.90;32.30;;;;;;;11.11;100.00;99294.90;109208;1255;59719;-72
2024/02/29 08:34:33;;;;;;;48.40;32.30;;;;;;;11.07;100.00;99294.45;109198;1255;68154;-72
2024/02/29 08:37:01;;;;;;;49.10;31.60;;;;;;;10.96;100.00;99297.52;109188;1256;60245;-72
2024/02/29 08:39:29;;;;;;;49.20;31.50;;;;;;;10.91;100.00;99295.85;109196;1255;64002;-72
2024/02/29 08:41:56;;;;;;;47.30;32.40;;;;;;;10.96;100.00;99294.08;108928;1255;60144;-71
2024/02/29 08:44:22;;;;;;;46.60;30.00;;;;;;;11.05;100.00;99293.02;109204;1255;59770;-72
2024/02/29 08:46:49;;;;;;;52.50;34.10;;;;;;;11.16;100.00;99290.69;109181;1256;68061;-72
2024/02/29 08:49:15;;;;;;;57.60;36.30;;;;;;;11.33;100.00;99291.39;109193;1255;59928;-72
2024/02/29 08:51:42;;;;;;;54.10;34.80;;;;;;;11.39;100.00;99288.82;109175;1255;64095;-71
2024/02/29 08:54:09;;;;;;;50.20;34.70;;;;;;;11.46;100.00;99283.78;109201;1255;59799;-72
2024/02/29 08:56:36;;;;;;;50.90;33.50;;;;;;;11.56;100.00;99279.91;109217;1255;59760;-72
2024/02/29 08:59:02;;;;;;;51.20;31.10;;;;;;;11.62;100.00;99280.02;109221;1255;68341;-72
2024/02/29 09:01:29;;;;;;;48.90;30.60;;;;;;;11.61;100.00;99281.67;109199;1255;61060;-72
2024/02/29 09:03:56;;;;;;;48.10;30.20;;;;;;;11.58;100.00;99284.52;109191;1255;65318;-72
2024/02/29 09:06:22;;;;;;;46.50;31.00;;;;;;;11.55;100.00;99286.91;109117;1255;59826;-71
2024/02/29 09:08:49;;;;;;;52.10;31.30;;;;;;;11.50;100.00;99284.73;109004;1256;59798;-72
2024/02/29 09:11:15;;;;;;;48.70;28.90;;;;;;;11.55;100.00;99279.58;109109;1256;68015;-72
2024/02/29 09:13:42;;;;;;;46.10;28.80;;;;;;;11.56;100.00;99278.82;109091;1256;60169;-72
2024/02/29 09:16:09;;;;;;;44.00;29.50;;;;;;;11.54;100.00;99275.56;109068;1256;64038;-72
2024/02/29 09:18:35;;;;;;;47.40;30.10;;;;;;;11.61;100.00;99277.74;109064;1256;59991;-72
2024/02/29 09:21:02;;;;;;;44.30;30.20;;;;;;;11.68;100.00;99276.98;108977;1256;59955;-72
2024/02/29 09:23:29;;;;;;;47.00;30.80;;;;;;;11.72;100.00;99273.82;109099;1256;66804;-71
2024/02/29 09:25:56;;;;;;;42.70;28.20;;;;;;;11.80;100.00;99276.31;109107;1256;60122;-71
2024/02/29 09:28:22;;;;;;;40.70;27.30;;;;;;;11.82;100.00;99276.52;109056;1256;65084;-71
2024/02/29 09:30:49;;;;;;;40.60;27.80;;;;;;;11.81;100.00;99269.13;109046;1256;59915;-71
2024/02/29 09:33:15;;;;;;;41.50;27.70;;;;;;;11.82;100.00;99272.46;108940;1256;59836;-72
2024/02/29 09:35:42;;;;;;;38.90;26.00;;;;;;;11.86;100.00;99271.50;109072;1256;68090;-71
2024/02/29 09:38:08;;;;;;;59.80;45.70;;;;;;;11.87;100.00;99268.60;109113;1256;61218;-71
2024/02/29 09:40:35;;;;;;;47.60;37.20;;;;;;;11.93;100.00;99267.84;109095;1256;65236;-72
2024/02/29 09:43:04;;;;;;;43.30;32.30;;;;;;;12.02;100.00;99265.96;109079;1256;59937;-72
2024/02/29 09:45:34;;;;;;;43.10;33.50;;;;;;;12.13;100.00;99264.19;109121;1256;59876;-71
2024/02/29 09:48:02;;;;;;;41.50;32.10;;;;;;;12.22;100.00;99263.49;109107;1256;66757;-72
2024/02/29 09:50:28;;;;;;;38.00;28.40;;;;;;;12.31;100.00;99261.12;109019;1256;61429;-72
2024/02/29 09:52:55;;;;;;;37.90;26.20;;;;;;;12.35;100.00;99262.44;109062;1256;65102;-71
2024/02/29 09:55:23;;;;;;;42.60;28.80;;;;;;;12.33;100.00;99258.10;108919;1256;60299;-73
2024/02/29 09:57:49;;;;;;;36.80;26.60;;;;;;;12.37;100.00;99255.89;109104;1256;60131;-72
2024/02/29 10:00:17;;;;;;;36.20;26.00;;;;;;;12.42;100.00;99254.83;109056;1256;67784;-71
2024/02/29 10:02:46;;;;;;;35.80;26.40;;;;;;;12.46;100.00;99251.54;109078;1256;61416;-72
2024/02/29 10:05:12;;;;;;;36.20;25.50;;;;;;;12.45;100.00;99247.30;108983;1256;63530;-71
2024/02/29 10:07:47;;;;;;;33.60;24.90;;;;;;;12.39;100.00;99241.14;109062;1256;59920;-71
2024/02/29 10:10:16;;;;;;;36.80;26.60;;;;;;;12.38;100.00;99240.17;109088;1256;59911;-71
2024/02/29 10:12:43;;;;;;;36.20;25.90;;;;;;;12.38;100.00;99238.54;109104;1256;67852;-70
2024/02/29 10:15:10;;;;;;;36.20;25.80;;;;;;;12.37;100.00;99238.59;109099;1256;60169;-71
2024/02/29 10:17:38;;;;;;;36.20;26.70;;;;;;;12.44;100.00;99242.91;109062;1256;64007;-71
2024/02/29 10:20:10;;;;;;;35.40;24.80;;;;;;;12.58;100.00;99243.34;109075;1256;59860;-72
2024/02/29 10:22:40;;;;;;;35.90;25.90;;;;;;;12.68;100.00;99235.14;108995;1256;59862;-71
2024/02/29 10:25:14;;;;;;;34.00;25.10;;;;;;;12.75;100.00;99236.07;109036;1257;68083;-71
2024/02/29 10:27:41;;;;;;;34.70;23.90;;;;;;;12.84;100.00;99233.29;109078;1256;60787;-71
2024/02/29 10:30:15;;;;;;;30.10;24.00;;;;;;;12.87;100.00;99227.56;108942;1256;64023;-71
2024/02/29 10:32:43;;;;;;;31.60;23.80;;;;;;;12.84;100.00;99229.17;109050;1256;59743;-72
2024/02/29 10:35:20;;;;;;;32.30;26.60;;;;;;;12.78;100.00;99225.38;109121;1256;59842;-71
2024/02/29 10:37:49;;;;;;;35.00;26.80;;;;;;;12.76;100.00;99220.30;109072;1256;67802;-72
2024/02/29 10:40:16;;;;;;;37.90;28.10;;;;;;;12.81;100.00;99212.81;109090;1256;60893;-71
2024/02/29 10:42:43;;;;;;;36.00;26.60;;;;;;;12.85;100.00;99208.26;109087;1256;64017;-71
2024/02/29 10:45:16;;;;;;;34.00;25.20;;;;;;;12.87;100.00;99200.96;108970;1256;60260;-72
2024/02/29 10:48:02;;;;;;;33.20;25.50;;;;;;;12.90;100.00;99203.43;109075;1256;59640;-72
2024/02/29 10:50:35;;;;;;;35.10;26.40;;;;;;;12.94;100.00;99199.23;109105;1256;66966;-72
2024/02/29 10:53:22;;;;;;;36.30;26.20;;;;;;;13.02;100.00;99193.09;109007;1256;61254;-72
2024/02/29 10:56:00;;;;;;;33.80;26.10;;;;;;;13.09;100.00;99188.28;109101;1256;64117;-71
2024/02/29 10:58:35;;;;;;;40.00;29.00;;;;;;;13.12;100.00;99187.73;109073;1256;60053;-72
2024/02/29 11:01:02;;;;;;;34.70;26.30;;;;;;;13.10;100.00;99181.41;109083;1256;59621;-72
2024/02/29 11:03:29;;;;;;;32.50;25.30;;;;;;;13.10;100.00;99181.05;109070;1256;66936;-72
2024/02/29 11:05:57;;;;;;;34.90;26.00;;;;;;;13.15;100.00;99179.50;109090;1256;60081;-72
2024/02/29 11:08:24;;;;;;;32.20;25.10;;;;;;;13.22;100.00;99176.29;109073;1256;64857;-72